sensor_id;sensor_type;location;lat;lon;timestamp;P1;durP1;ratioP1;P2;durP2;ratioP2
8050;SDS011;4068;42.158;24.732;2023-03-15T00:01:02;19.93;;;8.27;;
8050;SDS011;4068;42.158;24.732;2023-03-15T00:03:31;20.17;;;8.93;;
8050;SDS011;4068;42.158;24.732;2023-03-15T00:06:01;17.20;;;8.33;;
8050;SDS011;4068;42.158;24.732;2023-03-15T00:08:27;19.93;;;9.33;;
8050;SDS011;4068;42.158;24.732;2023-03-15T00:10:53;22.73;;;9.60;;
8050;SDS011;4068;42.158;24.732;2023-03-15T00:13:18;18.83;;;8.50;;
8050;SDS011;4068;42.158;24.732;2023-03-15T00:15:48;21.13;;;8.13;;
8050;SDS011;4068;42.158;24.732;2023-03-15T00:18:15;39.17;;;9.07;;
8050;SDS011;4068;42.158;24.732;2023-03-15T00:20:42;29.57;;;9.33;;
8050;SDS011;4068;42.158;24.732;2023-03-15T00:23:07;26.30;;;8.03;;
8050;SDS011;4068;42.158;24.732;2023-03-15T00:25:33;20.43;;;8.20;;
8050;SDS011;4068;42.158;24.732;2023-03-15T00:27:59;24.90;;;9.40;;
8050;SDS011;4068;42.158;24.732;2023-03-15T00:30:24;34.80;;;8.83;;
8050;SDS011;4068;42.158;24.732;2023-03-15T00:32:51;27.47;;;10.00;;
8050;SDS011;4068;42.158;24.732;2023-03-15T00:35:17;21.77;;;9.50;;
8050;SDS011;4068;42.158;24.732;2023-03-15T00:37:43;19.20;;;8.67;;
8050;SDS011;4068;42.158;24.732;2023-03-15T00:40:09;17.67;;;9.43;;
8050;SDS011;4068;42.158;24.732;2023-03-15T00:42:36;21.10;;;8.03;;
8050;SDS011;4068;42.158;24.732;2023-03-15T00:45:01;22.73;;;9.13;;
8050;SDS011;4068;42.158;24.732;2023-03-15T00:47:27;18.90;;;8.60;;
8050;SDS011;4068;42.158;24.732;2023-03-15T00:49:52;46.03;;;12.60;;
8050;SDS011;4068;42.158;24.732;2023-03-15T00:52:18;32.40;;;11.30;;
8050;SDS011;4068;42.158;24.732;2023-03-15T00:54:49;18.47;;;9.40;;
8050;SDS011;4068;42.158;24.732;2023-03-15T00:57:18;20.17;;;8.57;;
8050;SDS011;4068;42.158;24.732;2023-03-15T00:59:44;14.67;;;8.07;;
8050;SDS011;4068;42.158;24.732;2023-03-15T01:02:10;9.57;;;6.97;;
8050;SDS011;4068;42.158;24.732;2023-03-15T01:04:36;18.50;;;7.57;;
8050;SDS011;4068;42.158;24.732;2023-03-15T01:07:02;13.03;;;6.70;;
8050;SDS011;4068;42.158;24.732;2023-03-15T01:09:28;7.90;;;6.63;;
8050;SDS011;4068;42.158;24.732;2023-03-15T01:11:55;9.40;;;6.93;;
8050;SDS011;4068;42.158;24.732;2023-03-15T01:14:21;13.83;;;6.80;;
8050;SDS011;4068;42.158;24.732;2023-03-15T01:16:46;10.83;;;7.50;;
8050;SDS011;4068;42.158;24.732;2023-03-15T01:19:12;11.97;;;8.17;;
8050;SDS011;4068;42.158;24.732;2023-03-15T01:21:37;15.17;;;8.90;;
8050;SDS011;4068;42.158;24.732;2023-03-15T01:24:03;15.00;;;9.07;;
8050;SDS011;4068;42.158;24.732;2023-03-15T01:26:28;18.27;;;9.97;;
8050;SDS011;4068;42.158;24.732;2023-03-15T01:28:54;15.00;;;9.77;;
8050;SDS011;4068;42.158;24.732;2023-03-15T01:31:24;27.27;;;11.23;;
8050;SDS011;4068;42.158;24.732;2023-03-15T01:33:52;26.23;;;13.40;;
8050;SDS011;4068;42.158;24.732;2023-03-15T01:36:18;31.97;;;15.60;;
8050;SDS011;4068;42.158;24.732;2023-03-15T01:38:43;23.57;;;13.57;;
8050;SDS011;4068;42.158;24.732;2023-03-15T01:41:12;22.50;;;13.20;;
8050;SDS011;4068;42.158;24.732;2023-03-15T01:43:38;25.50;;;14.43;;
8050;SDS011;4068;42.158;24.732;2023-03-15T01:49:06;31.53;;;15.40;;
8050;SDS011;4068;42.158;24.732;2023-03-15T01:54:18;31.53;;;16.67;;
8050;SDS011;4068;42.158;24.732;2023-03-15T01:57:00;29.73;;;17.10;;
8050;SDS011;4068;42.158;24.732;2023-03-15T01:59:34;36.43;;;17.67;;
8050;SDS011;4068;42.158;24.732;2023-03-15T02:02:03;33.67;;;16.37;;
8050;SDS011;4068;42.158;24.732;2023-03-15T02:04:31;37.03;;;17.30;;
8050;SDS011;4068;42.158;24.732;2023-03-15T02:07:03;31.03;;;16.33;;
8050;SDS011;4068;42.158;24.732;2023-03-15T02:12:41;28.30;;;15.90;;
8050;SDS011;4068;42.158;24.732;2023-03-15T02:15:10;28.77;;;15.53;;
8050;SDS011;4068;42.158;24.732;2023-03-15T02:17:40;29.80;;;15.97;;
8050;SDS011;4068;42.158;24.732;2023-03-15T02:20:15;40.80;;;18.80;;
8050;SDS011;4068;42.158;24.732;2023-03-15T02:22:56;44.53;;;19.07;;
8050;SDS011;4068;42.158;24.732;2023-03-15T02:28:19;33.93;;;17.47;;
8050;SDS011;4068;42.158;24.732;2023-03-15T02:30:45;41.03;;;19.33;;
8050;SDS011;4068;42.158;24.732;2023-03-15T02:33:33;35.17;;;17.87;;
8050;SDS011;4068;42.158;24.732;2023-03-15T02:38:45;39.53;;;17.97;;
8050;SDS011;4068;42.158;24.732;2023-03-15T02:41:13;36.57;;;18.03;;
8050;SDS011;4068;42.158;24.732;2023-03-15T02:43:46;36.37;;;17.23;;
8050;SDS011;4068;42.158;24.732;2023-03-15T02:46:13;37.63;;;19.90;;
8050;SDS011;4068;42.158;24.732;2023-03-15T02:48:40;40.07;;;19.30;;
8050;SDS011;4068;42.158;24.732;2023-03-15T02:51:06;32.27;;;18.97;;
8050;SDS011;4068;42.158;24.732;2023-03-15T02:53:41;40.93;;;17.97;;
8050;SDS011;4068;42.158;24.732;2023-03-15T02:56:06;46.57;;;19.00;;
8050;SDS011;4068;42.158;24.732;2023-03-15T02:58:32;41.27;;;18.47;;
8050;SDS011;4068;42.158;24.732;2023-03-15T03:00:57;40.33;;;18.10;;
8050;SDS011;4068;42.158;24.732;2023-03-15T03:03:22;36.57;;;17.93;;
8050;SDS011;4068;42.158;24.732;2023-03-15T03:05:48;36.57;;;18.47;;
8050;SDS011;4068;42.158;24.732;2023-03-15T03:08:13;38.27;;;18.07;;
8050;SDS011;4068;42.158;24.732;2023-03-15T03:10:40;34.27;;;17.67;;
8050;SDS011;4068;42.158;24.732;2023-03-15T03:13:06;35.93;;;17.07;;
8050;SDS011;4068;42.158;24.732;2023-03-15T03:15:31;35.03;;;17.33;;
8050;SDS011;4068;42.158;24.732;2023-03-15T03:17:57;36.03;;;17.67;;
8050;SDS011;4068;42.158;24.732;2023-03-15T03:20:22;35.13;;;18.27;;
8050;SDS011;4068;42.158;24.732;2023-03-15T03:22:47;35.93;;;18.43;;
8050;SDS011;4068;42.158;24.732;2023-03-15T03:25:13;35.33;;;17.87;;
8050;SDS011;4068;42.158;24.732;2023-03-15T03:27:39;34.97;;;17.83;;
8050;SDS011;4068;42.158;24.732;2023-03-15T03:30:05;39.70;;;16.10;;
8050;SDS011;4068;42.158;24.732;2023-03-15T03:32:33;57.47;;;17.37;;
8050;SDS011;4068;42.158;24.732;2023-03-15T03:34:58;40.83;;;16.87;;
8050;SDS011;4068;42.158;24.732;2023-03-15T03:37:24;41.10;;;17.30;;
8050;SDS011;4068;42.158;24.732;2023-03-15T03:39:49;41.07;;;18.10;;
8050;SDS011;4068;42.158;24.732;2023-03-15T03:42:15;33.93;;;16.70;;
8050;SDS011;4068;42.158;24.732;2023-03-15T03:44:41;30.47;;;15.40;;
8050;SDS011;4068;42.158;24.732;2023-03-15T03:47:06;23.67;;;10.97;;
8050;SDS011;4068;42.158;24.732;2023-03-15T03:49:32;17.77;;;8.20;;
8050;SDS011;4068;42.158;24.732;2023-03-15T03:51:57;14.17;;;8.00;;
8050;SDS011;4068;42.158;24.732;2023-03-15T03:54:24;20.40;;;8.83;;
8050;SDS011;4068;42.158;24.732;2023-03-15T03:56:50;24.47;;;9.07;;
8050;SDS011;4068;42.158;24.732;2023-03-15T03:59:15;14.67;;;8.80;;
8050;SDS011;4068;42.158;24.732;2023-03-15T04:01:41;19.03;;;8.67;;
8050;SDS011;4068;42.158;24.732;2023-03-15T04:04:06;14.50;;;8.97;;
8050;SDS011;4068;42.158;24.732;2023-03-15T04:06:33;16.73;;;8.53;;
8050;SDS011;4068;42.158;24.732;2023-03-15T04:08:59;17.30;;;9.23;;
8050;SDS011;4068;42.158;24.732;2023-03-15T04:11:27;15.67;;;8.97;;
8050;SDS011;4068;42.158;24.732;2023-03-15T04:13:52;17.60;;;9.10;;
8050;SDS011;4068;42.158;24.732;2023-03-15T04:16:18;24.83;;;10.20;;
8050;SDS011;4068;42.158;24.732;2023-03-15T04:18:44;34.03;;;14.83;;
8050;SDS011;4068;42.158;24.732;2023-03-15T04:21:09;37.43;;;17.63;;
8050;SDS011;4068;42.158;24.732;2023-03-15T04:23:35;36.03;;;16.20;;
8050;SDS011;4068;42.158;24.732;2023-03-15T04:26:02;35.63;;;17.10;;
8050;SDS011;4068;42.158;24.732;2023-03-15T04:28:29;39.30;;;17.63;;
8050;SDS011;4068;42.158;24.732;2023-03-15T04:30:55;39.80;;;16.97;;
8050;SDS011;4068;42.158;24.732;2023-03-15T04:33:25;38.20;;;17.93;;
8050;SDS011;4068;42.158;24.732;2023-03-15T04:35:51;46.10;;;18.03;;
8050;SDS011;4068;42.158;24.732;2023-03-15T04:38:16;26.07;;;13.10;;
8050;SDS011;4068;42.158;24.732;2023-03-15T04:40:42;29.50;;;12.37;;
8050;SDS011;4068;42.158;24.732;2023-03-15T04:43:08;39.63;;;17.90;;
8050;SDS011;4068;42.158;24.732;2023-03-15T04:45:33;38.13;;;16.63;;
8050;SDS011;4068;42.158;24.732;2023-03-15T04:47:59;35.43;;;16.17;;
8050;SDS011;4068;42.158;24.732;2023-03-15T04:50:26;25.63;;;12.07;;
8050;SDS011;4068;42.158;24.732;2023-03-15T04:52:52;29.33;;;11.10;;
8050;SDS011;4068;42.158;24.732;2023-03-15T04:55:18;19.80;;;10.17;;
8050;SDS011;4068;42.158;24.732;2023-03-15T04:57:43;24.87;;;9.50;;
8050;SDS011;4068;42.158;24.732;2023-03-15T05:00:09;15.07;;;9.10;;
8050;SDS011;4068;42.158;24.732;2023-03-15T05:02:37;15.83;;;8.77;;
8050;SDS011;4068;42.158;24.732;2023-03-15T05:05:06;19.53;;;9.57;;
8050;SDS011;4068;42.158;24.732;2023-03-15T05:07:33;20.23;;;8.97;;
8050;SDS011;4068;42.158;24.732;2023-03-15T05:09:59;14.97;;;9.37;;
8050;SDS011;4068;42.158;24.732;2023-03-15T05:12:25;16.67;;;9.33;;
8050;SDS011;4068;42.158;24.732;2023-03-15T05:14:51;18.77;;;8.67;;
8050;SDS011;4068;42.158;24.732;2023-03-15T05:17:17;14.37;;;9.30;;
8050;SDS011;4068;42.158;24.732;2023-03-15T05:19:42;19.03;;;9.30;;
8050;SDS011;4068;42.158;24.732;2023-03-15T05:22:08;19.90;;;10.07;;
8050;SDS011;4068;42.158;24.732;2023-03-15T05:24:33;15.70;;;8.83;;
8050;SDS011;4068;42.158;24.732;2023-03-15T05:26:59;19.07;;;9.83;;
8050;SDS011;4068;42.158;24.732;2023-03-15T05:29:24;18.43;;;9.50;;
8050;SDS011;4068;42.158;24.732;2023-03-15T05:31:50;18.37;;;9.83;;
8050;SDS011;4068;42.158;24.732;2023-03-15T05:34:16;15.60;;;9.73;;
8050;SDS011;4068;42.158;24.732;2023-03-15T05:36:43;27.67;;;9.80;;
8050;SDS011;4068;42.158;24.732;2023-03-15T05:39:08;17.53;;;9.80;;
8050;SDS011;4068;42.158;24.732;2023-03-15T05:41:35;18.43;;;9.87;;
8050;SDS011;4068;42.158;24.732;2023-03-15T05:44:01;19.13;;;10.60;;
8050;SDS011;4068;42.158;24.732;2023-03-15T05:46:26;18.23;;;10.00;;
8050;SDS011;4068;42.158;24.732;2023-03-15T05:48:51;17.80;;;9.80;;
8050;SDS011;4068;42.158;24.732;2023-03-15T05:51:18;24.87;;;11.40;;
8050;SDS011;4068;42.158;24.732;2023-03-15T05:53:43;23.00;;;10.00;;
8050;SDS011;4068;42.158;24.732;2023-03-15T05:56:09;20.80;;;10.20;;
8050;SDS011;4068;42.158;24.732;2023-03-15T05:58:34;20.43;;;10.63;;
8050;SDS011;4068;42.158;24.732;2023-03-15T06:01:00;22.03;;;10.17;;
8050;SDS011;4068;42.158;24.732;2023-03-15T06:03:28;16.17;;;10.00;;
8050;SDS011;4068;42.158;24.732;2023-03-15T06:05:54;15.50;;;10.33;;
8050;SDS011;4068;42.158;24.732;2023-03-15T06:08:19;25.33;;;12.07;;
8050;SDS011;4068;42.158;24.732;2023-03-15T06:10:45;14.63;;;9.20;;
8050;SDS011;4068;42.158;24.732;2023-03-15T06:13:10;15.47;;;9.77;;
8050;SDS011;4068;42.158;24.732;2023-03-15T06:15:36;21.93;;;12.17;;
8050;SDS011;4068;42.158;24.732;2023-03-15T06:18:01;19.97;;;9.47;;
8050;SDS011;4068;42.158;24.732;2023-03-15T06:20:26;23.07;;;10.57;;
8050;SDS011;4068;42.158;24.732;2023-03-15T06:22:52;22.70;;;11.30;;
8050;SDS011;4068;42.158;24.732;2023-03-15T06:25:18;28.90;;;11.00;;
8050;SDS011;4068;42.158;24.732;2023-03-15T06:27:44;22.70;;;10.30;;
8050;SDS011;4068;42.158;24.732;2023-03-15T06:30:09;19.80;;;9.80;;
8050;SDS011;4068;42.158;24.732;2023-03-15T06:32:35;18.67;;;9.20;;
8050;SDS011;4068;42.158;24.732;2023-03-15T06:35:00;21.47;;;10.13;;
8050;SDS011;4068;42.158;24.732;2023-03-15T06:37:26;19.57;;;11.43;;
8050;SDS011;4068;42.158;24.732;2023-03-15T06:39:51;17.33;;;9.97;;
8050;SDS011;4068;42.158;24.732;2023-03-15T06:42:18;21.53;;;11.23;;
8050;SDS011;4068;42.158;24.732;2023-03-15T06:44:43;19.33;;;11.50;;
8050;SDS011;4068;42.158;24.732;2023-03-15T06:47:09;32.10;;;12.97;;
8050;SDS011;4068;42.158;24.732;2023-03-15T06:49:35;27.03;;;10.50;;
8050;SDS011;4068;42.158;24.732;2023-03-15T06:52:02;23.53;;;10.90;;
8050;SDS011;4068;42.158;24.732;2023-03-15T06:54:28;33.03;;;15.10;;
8050;SDS011;4068;42.158;24.732;2023-03-15T06:56:54;32.63;;;11.90;;
8050;SDS011;4068;42.158;24.732;2023-03-15T06:59:19;22.83;;;12.10;;
8050;SDS011;4068;42.158;24.732;2023-03-15T07:01:45;27.40;;;13.17;;
8050;SDS011;4068;42.158;24.732;2023-03-15T07:04:10;23.47;;;12.47;;
8050;SDS011;4068;42.158;24.732;2023-03-15T07:06:36;20.90;;;11.80;;
8050;SDS011;4068;42.158;24.732;2023-03-15T07:09:02;42.08;;;19.52;;
8050;SDS011;4068;42.158;24.732;2023-03-15T07:11:27;24.57;;;13.13;;
8050;SDS011;4068;42.158;24.732;2023-03-15T07:13:53;32.63;;;13.37;;
8050;SDS011;4068;42.158;24.732;2023-03-15T07:16:18;22.97;;;12.30;;
8050;SDS011;4068;42.158;24.732;2023-03-15T07:18:44;20.70;;;11.17;;
8050;SDS011;4068;42.158;24.732;2023-03-15T07:21:09;22.33;;;11.37;;
8050;SDS011;4068;42.158;24.732;2023-03-15T07:23:34;21.98;;;11.00;;
8050;SDS011;4068;42.158;24.732;2023-03-15T07:26:00;18.45;;;10.40;;
8050;SDS011;4068;42.158;24.732;2023-03-15T07:28:26;26.15;;;12.07;;
8050;SDS011;4068;42.158;24.732;2023-03-15T07:30:55;17.70;;;10.93;;
8050;SDS011;4068;42.158;24.732;2023-03-15T07:33:23;18.98;;;11.00;;
8050;SDS011;4068;42.158;24.732;2023-03-15T07:35:50;22.02;;;10.40;;
8050;SDS011;4068;42.158;24.732;2023-03-15T07:38:17;22.02;;;12.00;;
8050;SDS011;4068;42.158;24.732;2023-03-15T07:40:43;22.73;;;12.45;;
8050;SDS011;4068;42.158;24.732;2023-03-15T07:43:09;17.67;;;10.55;;
8050;SDS011;4068;42.158;24.732;2023-03-15T07:45:34;18.05;;;10.95;;
8050;SDS011;4068;42.158;24.732;2023-03-15T07:48:00;24.90;;;9.75;;
8050;SDS011;4068;42.158;24.732;2023-03-15T07:50:25;21.70;;;10.25;;
8050;SDS011;4068;42.158;24.732;2023-03-15T07:52:51;27.80;;;10.37;;
8050;SDS011;4068;42.158;24.732;2023-03-15T07:55:16;22.42;;;10.57;;
8050;SDS011;4068;42.158;24.732;2023-03-15T07:57:42;37.17;;;11.32;;
8050;SDS011;4068;42.158;24.732;2023-03-15T08:00:07;23.75;;;11.07;;
8050;SDS011;4068;42.158;24.732;2023-03-15T08:02:35;22.38;;;9.98;;
8050;SDS011;4068;42.158;24.732;2023-03-15T08:05:01;21.45;;;10.25;;
8050;SDS011;4068;42.158;24.732;2023-03-15T08:07:28;18.38;;;10.93;;
8050;SDS011;4068;42.158;24.732;2023-03-15T08:09:54;18.17;;;10.18;;
8050;SDS011;4068;42.158;24.732;2023-03-15T08:12:22;26.15;;;9.95;;
8050;SDS011;4068;42.158;24.732;2023-03-15T08:14:48;15.23;;;9.30;;
8050;SDS011;4068;42.158;24.732;2023-03-15T08:17:14;21.85;;;9.60;;
8050;SDS011;4068;42.158;24.732;2023-03-15T08:19:40;21.38;;;10.23;;
8050;SDS011;4068;42.158;24.732;2023-03-15T08:22:05;15.20;;;8.48;;
8050;SDS011;4068;42.158;24.732;2023-03-15T08:24:32;18.77;;;11.02;;
8050;SDS011;4068;42.158;24.732;2023-03-15T08:26:57;14.48;;;9.50;;
8050;SDS011;4068;42.158;24.732;2023-03-15T08:29:23;19.10;;;9.80;;
8050;SDS011;4068;42.158;24.732;2023-03-15T08:31:48;23.20;;;10.18;;
8050;SDS011;4068;42.158;24.732;2023-03-15T08:34:14;36.42;;;10.52;;
8050;SDS011;4068;42.158;24.732;2023-03-15T08:36:40;20.02;;;10.57;;
8050;SDS011;4068;42.158;24.732;2023-03-15T08:39:06;21.60;;;10.48;;
8050;SDS011;4068;42.158;24.732;2023-03-15T08:41:32;21.65;;;10.25;;
8050;SDS011;4068;42.158;24.732;2023-03-15T08:43:58;17.13;;;10.93;;
8050;SDS011;4068;42.158;24.732;2023-03-15T08:46:24;21.77;;;11.02;;
8050;SDS011;4068;42.158;24.732;2023-03-15T08:48:50;16.52;;;10.55;;
8050;SDS011;4068;42.158;24.732;2023-03-15T08:51:16;22.83;;;11.07;;
8050;SDS011;4068;42.158;24.732;2023-03-15T08:53:41;17.15;;;10.60;;
8050;SDS011;4068;42.158;24.732;2023-03-15T08:56:07;21.85;;;11.80;;
8050;SDS011;4068;42.158;24.732;2023-03-15T08:58:33;21.30;;;10.48;;
8050;SDS011;4068;42.158;24.732;2023-03-15T09:00:59;21.58;;;10.85;;
8050;SDS011;4068;42.158;24.732;2023-03-15T09:03:24;22.38;;;11.90;;
8050;SDS011;4068;42.158;24.732;2023-03-15T09:05:54;23.73;;;10.60;;
8050;SDS011;4068;42.158;24.732;2023-03-15T09:08:20;14.25;;;9.75;;
8050;SDS011;4068;42.158;24.732;2023-03-15T09:10:46;30.02;;;12.25;;
8050;SDS011;4068;42.158;24.732;2023-03-15T09:13:11;24.75;;;11.93;;
8050;SDS011;4068;42.158;24.732;2023-03-15T09:15:36;21.92;;;11.20;;
8050;SDS011;4068;42.158;24.732;2023-03-15T09:18:02;18.23;;;10.48;;
8050;SDS011;4068;42.158;24.732;2023-03-15T09:20:27;21.88;;;11.35;;
8050;SDS011;4068;42.158;24.732;2023-03-15T09:22:54;18.73;;;11.20;;
8050;SDS011;4068;42.158;24.732;2023-03-15T09:25:21;20.17;;;10.82;;
8050;SDS011;4068;42.158;24.732;2023-03-15T09:27:48;24.58;;;11.32;;
8050;SDS011;4068;42.158;24.732;2023-03-15T09:30:14;17.30;;;10.93;;
8050;SDS011;4068;42.158;24.732;2023-03-15T09:32:39;18.55;;;10.45;;
8050;SDS011;4068;42.158;24.732;2023-03-15T09:35:06;25.42;;;11.95;;
8050;SDS011;4068;42.158;24.732;2023-03-15T09:37:34;18.45;;;10.50;;
8050;SDS011;4068;42.158;24.732;2023-03-15T09:40:00;24.58;;;11.50;;
8050;SDS011;4068;42.158;24.732;2023-03-15T09:48:33;20.10;;;10.45;;
8050;SDS011;4068;42.158;24.732;2023-03-15T09:51:13;19.90;;;10.15;;
8050;SDS011;4068;42.158;24.732;2023-03-15T09:53:51;19.08;;;10.70;;
8050;SDS011;4068;42.158;24.732;2023-03-15T09:56:23;17.35;;;10.60;;
8050;SDS011;4068;42.158;24.732;2023-03-15T09:58:57;17.42;;;10.88;;
8050;SDS011;4068;42.158;24.732;2023-03-15T10:01:35;17.45;;;11.52;;
8050;SDS011;4068;42.158;24.732;2023-03-15T10:07:05;16.55;;;11.52;;
8050;SDS011;4068;42.158;24.732;2023-03-15T10:09:33;15.98;;;10.25;;
8050;SDS011;4068;42.158;24.732;2023-03-15T10:12:07;23.58;;;12.13;;
8050;SDS011;4068;42.158;24.732;2023-03-15T10:20:26;21.70;;;11.27;;
8050;SDS011;4068;42.158;24.732;2023-03-15T10:25:38;22.27;;;11.70;;
8050;SDS011;4068;42.158;24.732;2023-03-15T10:30:38;22.10;;;12.85;;
8050;SDS011;4068;42.158;24.732;2023-03-15T10:33:14;21.08;;;11.43;;
8050;SDS011;4068;42.158;24.732;2023-03-15T10:36:01;19.08;;;10.90;;
8050;SDS011;4068;42.158;24.732;2023-03-15T10:38:35;18.25;;;11.70;;
8050;SDS011;4068;42.158;24.732;2023-03-15T10:41:00;23.42;;;12.10;;
8050;SDS011;4068;42.158;24.732;2023-03-15T10:43:31;26.52;;;14.43;;
8050;SDS011;4068;42.158;24.732;2023-03-15T10:46:01;17.85;;;11.13;;
8050;SDS011;4068;42.158;24.732;2023-03-15T10:48:28;17.95;;;11.65;;
8050;SDS011;4068;42.158;24.732;2023-03-15T10:51:14;26.25;;;11.45;;
8050;SDS011;4068;42.158;24.732;2023-03-15T10:53:50;19.40;;;12.98;;
8050;SDS011;4068;42.158;24.732;2023-03-15T10:56:19;19.58;;;11.93;;
8050;SDS011;4068;42.158;24.732;2023-03-15T10:58:51;21.50;;;11.68;;
8050;SDS011;4068;42.158;24.732;2023-03-15T11:01:35;20.00;;;11.80;;
8050;SDS011;4068;42.158;24.732;2023-03-15T11:06:43;18.95;;;11.07;;
8050;SDS011;4068;42.158;24.732;2023-03-15T11:09:23;20.42;;;11.25;;
8050;SDS011;4068;42.158;24.732;2023-03-15T11:11:58;18.45;;;12.13;;
8050;SDS011;4068;42.158;24.732;2023-03-15T11:14:27;16.25;;;10.93;;
8050;SDS011;4068;42.158;24.732;2023-03-15T11:16:57;16.75;;;11.70;;
8050;SDS011;4068;42.158;24.732;2023-03-15T11:19:28;17.23;;;11.35;;
8050;SDS011;4068;42.158;24.732;2023-03-15T11:21:55;15.25;;;10.38;;
8050;SDS011;4068;42.158;24.732;2023-03-15T11:24:30;13.40;;;9.82;;
8050;SDS011;4068;42.158;24.732;2023-03-15T11:26:58;18.50;;;9.77;;
8050;SDS011;4068;42.158;24.732;2023-03-15T11:29:30;19.83;;;10.85;;
8050;SDS011;4068;42.158;24.732;2023-03-15T11:31:59;19.02;;;10.40;;
8050;SDS011;4068;42.158;24.732;2023-03-15T11:37:15;12.63;;;9.55;;
8050;SDS011;4068;42.158;24.732;2023-03-15T11:39:48;17.83;;;10.77;;
8050;SDS011;4068;42.158;24.732;2023-03-15T11:42:32;15.63;;;10.13;;
8050;SDS011;4068;42.158;24.732;2023-03-15T11:45:07;16.95;;;9.88;;
8050;SDS011;4068;42.158;24.732;2023-03-15T11:47:44;19.55;;;9.98;;
8050;SDS011;4068;42.158;24.732;2023-03-15T11:50:15;14.25;;;10.18;;
8050;SDS011;4068;42.158;24.732;2023-03-15T11:52:41;15.82;;;10.13;;
8050;SDS011;4068;42.158;24.732;2023-03-15T11:55:16;14.40;;;9.10;;
8050;SDS011;4068;42.158;24.732;2023-03-15T11:57:45;14.00;;;9.55;;
8050;SDS011;4068;42.158;24.732;2023-03-15T12:02:50;18.35;;;11.20;;
8050;SDS011;4068;42.158;24.732;2023-03-15T12:16:20;16.88;;;10.52;;
8050;SDS011;4068;42.158;24.732;2023-03-15T12:18:47;18.80;;;9.60;;
8050;SDS011;4068;42.158;24.732;2023-03-15T12:21:20;18.10;;;9.75;;
8050;SDS011;4068;42.158;24.732;2023-03-15T12:24:03;14.45;;;9.80;;
8050;SDS011;4068;42.158;24.732;2023-03-15T12:26:35;14.30;;;9.48;;
8050;SDS011;4068;42.158;24.732;2023-03-15T12:29:27;16.13;;;10.55;;
8050;SDS011;4068;42.158;24.732;2023-03-15T12:34:49;19.92;;;9.60;;
8050;SDS011;4068;42.158;24.732;2023-03-15T12:37:21;12.38;;;8.48;;
8050;SDS011;4068;42.158;24.732;2023-03-15T12:53:03;13.88;;;7.47;;
8050;SDS011;4068;42.158;24.732;2023-03-15T12:55:37;11.23;;;7.32;;
8050;SDS011;4068;42.158;24.732;2023-03-15T12:58:04;11.70;;;7.20;;
8050;SDS011;4068;42.158;24.732;2023-03-15T13:00:33;10.18;;;7.65;;
8050;SDS011;4068;42.158;24.732;2023-03-15T13:03:05;9.13;;;7.15;;
8050;SDS011;4068;42.158;24.732;2023-03-15T13:16:57;13.10;;;7.45;;
8050;SDS011;4068;42.158;24.732;2023-03-15T13:19:44;14.90;;;7.72;;
8050;SDS011;4068;42.158;24.732;2023-03-15T13:33:11;9.38;;;7.22;;
8050;SDS011;4068;42.158;24.732;2023-03-15T13:35:55;9.27;;;7.40;;
8050;SDS011;4068;42.158;24.732;2023-03-15T13:38:25;11.55;;;7.47;;
8050;SDS011;4068;42.158;24.732;2023-03-15T13:40:56;11.70;;;7.03;;
8050;SDS011;4068;42.158;24.732;2023-03-15T13:43:26;11.18;;;7.20;;
8050;SDS011;4068;42.158;24.732;2023-03-15T13:45:58;14.20;;;7.43;;
8050;SDS011;4068;42.158;24.732;2023-03-15T13:48:28;26.98;;;9.93;;
8050;SDS011;4068;42.158;24.732;2023-03-15T13:50:56;15.52;;;7.45;;
8050;SDS011;4068;42.158;24.732;2023-03-15T13:53:35;15.73;;;6.90;;
8050;SDS011;4068;42.158;24.732;2023-03-15T13:56:04;10.27;;;6.80;;
8050;SDS011;4068;42.158;24.732;2023-03-15T13:58:31;11.68;;;7.43;;
8050;SDS011;4068;42.158;24.732;2023-03-15T14:00:58;11.20;;;7.15;;
8050;SDS011;4068;42.158;24.732;2023-03-15T14:03:25;14.95;;;8.55;;
8050;SDS011;4068;42.158;24.732;2023-03-15T14:05:53;17.70;;;7.90;;
8050;SDS011;4068;42.158;24.732;2023-03-15T14:10:56;11.98;;;7.30;;
8050;SDS011;4068;42.158;24.732;2023-03-15T14:13:27;11.90;;;7.88;;
8050;SDS011;4068;42.158;24.732;2023-03-15T14:15:59;11.57;;;7.07;;
8050;SDS011;4068;42.158;24.732;2023-03-15T14:18:31;22.10;;;12.77;;
8050;SDS011;4068;42.158;24.732;2023-03-15T14:21:00;17.42;;;9.75;;
8050;SDS011;4068;42.158;24.732;2023-03-15T14:23:30;12.60;;;8.55;;
8050;SDS011;4068;42.158;24.732;2023-03-15T14:31:22;19.30;;;8.07;;
8050;SDS011;4068;42.158;24.732;2023-03-15T14:33:55;13.20;;;7.72;;
8050;SDS011;4068;42.158;24.732;2023-03-15T14:36:58;12.70;;;6.93;;
8050;SDS011;4068;42.158;24.732;2023-03-15T14:39:22;15.65;;;7.68;;
8050;SDS011;4068;42.158;24.732;2023-03-15T14:41:55;12.45;;;7.45;;
8050;SDS011;4068;42.158;24.732;2023-03-15T14:44:21;15.55;;;7.72;;
8050;SDS011;4068;42.158;24.732;2023-03-15T14:46:46;10.38;;;7.05;;
8050;SDS011;4068;42.158;24.732;2023-03-15T14:49:21;13.18;;;7.35;;
8050;SDS011;4068;42.158;24.732;2023-03-15T14:51:51;13.15;;;7.32;;
8050;SDS011;4068;42.158;24.732;2023-03-15T14:54:28;12.48;;;7.93;;
8050;SDS011;4068;42.158;24.732;2023-03-15T14:56:56;14.20;;;7.60;;
8050;SDS011;4068;42.158;24.732;2023-03-15T14:59:21;13.18;;;8.18;;
8050;SDS011;4068;42.158;24.732;2023-03-15T15:01:51;12.98;;;8.32;;
8050;SDS011;4068;42.158;24.732;2023-03-15T15:04:19;20.60;;;9.02;;
8050;SDS011;4068;42.158;24.732;2023-03-15T15:06:45;17.20;;;7.65;;
8050;SDS011;4068;42.158;24.732;2023-03-15T15:09:15;15.40;;;7.45;;
8050;SDS011;4068;42.158;24.732;2023-03-15T15:11:52;14.32;;;8.05;;
8050;SDS011;4068;42.158;24.732;2023-03-15T15:14:18;13.60;;;8.25;;
8050;SDS011;4068;42.158;24.732;2023-03-15T15:16:46;12.60;;;8.38;;
8050;SDS011;4068;42.158;24.732;2023-03-15T15:19:12;11.07;;;8.52;;
8050;SDS011;4068;42.158;24.732;2023-03-15T15:21:39;12.32;;;8.30;;
8050;SDS011;4068;42.158;24.732;2023-03-15T15:24:14;13.75;;;8.05;;
8050;SDS011;4068;42.158;24.732;2023-03-15T15:26:42;16.00;;;8.50;;
8050;SDS011;4068;42.158;24.732;2023-03-15T15:29:14;15.50;;;9.30;;
8050;SDS011;4068;42.158;24.732;2023-03-15T15:31:40;13.38;;;8.15;;
8050;SDS011;4068;42.158;24.732;2023-03-15T15:34:07;19.38;;;8.75;;
8050;SDS011;4068;42.158;24.732;2023-03-15T15:36:35;14.65;;;9.13;;
8050;SDS011;4068;42.158;24.732;2023-03-15T15:41:47;11.90;;;8.20;;
8050;SDS011;4068;42.158;24.732;2023-03-15T15:44:14;11.07;;;7.15;;
8050;SDS011;4068;42.158;24.732;2023-03-15T15:46:41;13.35;;;8.50;;
8050;SDS011;4068;42.158;24.732;2023-03-15T15:49:07;12.32;;;8.02;;
8050;SDS011;4068;42.158;24.732;2023-03-15T15:51:37;18.67;;;8.38;;
8050;SDS011;4068;42.158;24.732;2023-03-15T15:54:06;20.20;;;8.45;;
8050;SDS011;4068;42.158;24.732;2023-03-15T15:56:39;11.38;;;7.25;;
8050;SDS011;4068;42.158;24.732;2023-03-15T15:59:12;10.93;;;7.35;;
8050;SDS011;4068;42.158;24.732;2023-03-15T16:01:39;11.98;;;7.75;;
8050;SDS011;4068;42.158;24.732;2023-03-15T16:04:05;16.58;;;7.78;;
8050;SDS011;4068;42.158;24.732;2023-03-15T16:06:31;15.43;;;7.75;;
8050;SDS011;4068;42.158;24.732;2023-03-15T16:08:57;13.00;;;7.82;;
8050;SDS011;4068;42.158;24.732;2023-03-15T16:11:23;11.60;;;7.63;;
8050;SDS011;4068;42.158;24.732;2023-03-15T16:13:49;13.27;;;7.55;;
8050;SDS011;4068;42.158;24.732;2023-03-15T16:16:17;17.15;;;8.45;;
8050;SDS011;4068;42.158;24.732;2023-03-15T16:18:43;13.32;;;7.60;;
8050;SDS011;4068;42.158;24.732;2023-03-15T16:21:11;13.13;;;8.00;;
8050;SDS011;4068;42.158;24.732;2023-03-15T16:26:35;11.98;;;8.15;;
8050;SDS011;4068;42.158;24.732;2023-03-15T16:29:07;10.65;;;7.55;;
8050;SDS011;4068;42.158;24.732;2023-03-15T16:31:39;11.75;;;8.20;;